sensor_id;sensor_type;location;lat;lon;timestamp;P1;durP1;ratioP1;P2;durP2;ratioP2
17259;SDS011;8746;49.230;9.220;2022-07-23T00:02:14;8.70;;;7.65;;
17259;SDS011;8746;49.230;9.220;2022-07-23T00:04:40;8.45;;;7.65;;
17259;SDS011;8746;49.230;9.220;2022-07-23T00:07:05;8.75;;;7.60;;
17259;SDS011;8746;49.230;9.220;2022-07-23T00:09:31;8.50;;;7.70;;
17259;SDS011;8746;49.230;9.220;2022-07-23T00:11:56;10.52;;;8.13;;
17259;SDS011;8746;49.230;9.220;2022-07-23T00:14:21;8.70;;;7.78;;
17259;SDS011;8746;49.230;9.220;2022-07-23T00:16:47;8.32;;;7.50;;
17259;SDS011;8746;49.230;9.220;2022-07-23T00:19:12;11.50;;;8.10;;
17259;SDS011;8746;49.230;9.220;2022-07-23T00:21:38;8.93;;;8.00;;
17259;SDS011;8746;49.230;9.220;2022-07-23T00:24:03;10.50;;;7.70;;
17259;SDS011;8746;49.230;9.220;2022-07-23T00:26:29;9.77;;;8.35;;
17259;SDS011;8746;49.230;9.220;2022-07-23T00:28:54;8.80;;;8.00;;
17259;SDS011;8746;49.230;9.220;2022-07-23T00:31:20;9.55;;;8.57;;
17259;SDS011;8746;49.230;9.220;2022-07-23T00:33:45;13.00;;;8.15;;
17259;SDS011;8746;49.230;9.220;2022-07-23T00:36:10;8.30;;;7.60;;
17259;SDS011;8746;49.230;9.220;2022-07-23T00:38:36;8.90;;;8.05;;
17259;SDS011;8746;49.230;9.220;2022-07-23T00:41:01;8.63;;;7.93;;
17259;SDS011;8746;49.230;9.220;2022-07-23T00:43:27;8.27;;;7.55;;
17259;SDS011;8746;49.230;9.220;2022-07-23T00:45:52;9.10;;;8.15;;
17259;SDS011;8746;49.230;9.220;2022-07-23T00:48:17;10.18;;;8.60;;
17259;SDS011;8746;49.230;9.220;2022-07-23T00:50:43;9.13;;;8.25;;
17259;SDS011;8746;49.230;9.220;2022-07-23T00:53:08;8.90;;;8.10;;
17259;SDS011;8746;49.230;9.220;2022-07-23T00:55:35;9.30;;;8.40;;
17259;SDS011;8746;49.230;9.220;2022-07-23T00:58:01;9.15;;;8.35;;
17259;SDS011;8746;49.230;9.220;2022-07-23T01:00:27;9.02;;;8.23;;
17259;SDS011;8746;49.230;9.220;2022-07-23T01:02:52;9.10;;;8.27;;
17259;SDS011;8746;49.230;9.220;2022-07-23T01:05:18;9.40;;;8.57;;
17259;SDS011;8746;49.230;9.220;2022-07-23T01:07:47;8.57;;;7.70;;
17259;SDS011;8746;49.230;9.220;2022-07-23T01:10:13;12.82;;;8.45;;
17259;SDS011;8746;49.230;9.220;2022-07-23T01:12:57;9.35;;;8.38;;
17259;SDS011;8746;49.230;9.220;2022-07-23T01:15:23;8.98;;;8.07;;
17259;SDS011;8746;49.230;9.220;2022-07-23T01:17:49;9.20;;;8.10;;
17259;SDS011;8746;49.230;9.220;2022-07-23T01:20:15;9.23;;;8.30;;
17259;SDS011;8746;49.230;9.220;2022-07-23T01:22:40;10.82;;;8.43;;
17259;SDS011;8746;49.230;9.220;2022-07-23T01:25:06;10.10;;;8.63;;
17259;SDS011;8746;49.230;9.220;2022-07-23T01:27:32;9.00;;;8.20;;
17259;SDS011;8746;49.230;9.220;2022-07-23T01:29:57;9.32;;;8.43;;
17259;SDS011;8746;49.230;9.220;2022-07-23T01:32:25;9.60;;;8.60;;
17259;SDS011;8746;49.230;9.220;2022-07-23T01:34:51;9.20;;;8.20;;
17259;SDS011;8746;49.230;9.220;2022-07-23T01:37:16;10.55;;;8.90;;
17259;SDS011;8746;49.230;9.220;2022-07-23T01:39:41;9.80;;;8.70;;
17259;SDS011;8746;49.230;9.220;2022-07-23T01:42:07;9.50;;;8.60;;
17259;SDS011;8746;49.230;9.220;2022-07-23T01:44:32;9.70;;;8.70;;
17259;SDS011;8746;49.230;9.220;2022-07-23T01:46:57;10.15;;;8.77;;
17259;SDS011;8746;49.230;9.220;2022-07-23T01:49:23;9.63;;;8.75;;
17259;SDS011;8746;49.230;9.220;2022-07-23T01:51:48;10.02;;;8.85;;
17259;SDS011;8746;49.230;9.220;2022-07-23T01:54:29;9.32;;;8.45;;
17259;SDS011;8746;49.230;9.220;2022-07-23T01:56:56;9.07;;;8.27;;
17259;SDS011;8746;49.230;9.220;2022-07-23T01:59:23;10.13;;;9.00;;
17259;SDS011;8746;49.230;9.220;2022-07-23T02:01:49;8.68;;;7.93;;
17259;SDS011;8746;49.230;9.220;2022-07-23T02:04:21;9.43;;;8.55;;
17259;SDS011;8746;49.230;9.220;2022-07-23T02:06:47;9.38;;;8.65;;
17259;SDS011;8746;49.230;9.220;2022-07-23T02:09:13;9.68;;;8.75;;
17259;SDS011;8746;49.230;9.220;2022-07-23T02:11:39;9.60;;;8.80;;
17259;SDS011;8746;49.230;9.220;2022-07-23T02:14:05;9.23;;;8.38;;
17259;SDS011;8746;49.230;9.220;2022-07-23T02:16:30;9.70;;;8.80;;
17259;SDS011;8746;49.230;9.220;2022-07-23T02:18:56;10.10;;;8.98;;
17259;SDS011;8746;49.230;9.220;2022-07-23T02:21:21;10.03;;;9.10;;
17259;SDS011;8746;49.230;9.220;2022-07-23T02:23:46;9.65;;;8.90;;
17259;SDS011;8746;49.230;9.220;2022-07-23T02:26:12;9.50;;;8.53;;
17259;SDS011;8746;49.230;9.220;2022-07-23T02:28:37;9.98;;;9.18;;
17259;SDS011;8746;49.230;9.220;2022-07-23T02:31:03;9.85;;;8.95;;
17259;SDS011;8746;49.230;9.220;2022-07-23T02:33:29;9.43;;;8.63;;
17259;SDS011;8746;49.230;9.220;2022-07-23T02:35:54;9.25;;;8.48;;
17259;SDS011;8746;49.230;9.220;2022-07-23T02:38:20;11.23;;;9.15;;
17259;SDS011;8746;49.230;9.220;2022-07-23T02:40:45;10.20;;;9.40;;
17259;SDS011;8746;49.230;9.220;2022-07-23T02:43:11;9.60;;;8.73;;
17259;SDS011;8746;49.230;9.220;2022-07-23T02:45:36;11.63;;;9.35;;
17259;SDS011;8746;49.230;9.220;2022-07-23T02:48:01;10.23;;;9.43;;
17259;SDS011;8746;49.230;9.220;2022-07-23T02:50:27;9.30;;;8.40;;
17259;SDS011;8746;49.230;9.220;2022-07-23T02:52:53;9.00;;;8.30;;
17259;SDS011;8746;49.230;9.220;2022-07-23T02:55:18;8.88;;;7.97;;
17259;SDS011;8746;49.230;9.220;2022-07-23T02:57:44;8.85;;;7.97;;
17259;SDS011;8746;49.230;9.220;2022-07-23T03:00:09;8.63;;;7.93;;
17259;SDS011;8746;49.230;9.220;2022-07-23T03:02:35;9.32;;;8.50;;
17259;SDS011;8746;49.230;9.220;2022-07-23T03:05:00;8.90;;;8.07;;
17259;SDS011;8746;49.230;9.220;2022-07-23T03:07:26;8.85;;;8.07;;
17259;SDS011;8746;49.230;9.220;2022-07-23T03:09:51;9.20;;;8.30;;
17259;SDS011;8746;49.230;9.220;2022-07-23T03:12:17;10.15;;;8.98;;
17259;SDS011;8746;49.230;9.220;2022-07-23T03:14:42;9.43;;;8.60;;
17259;SDS011;8746;49.230;9.220;2022-07-23T03:17:08;10.13;;;9.07;;
17259;SDS011;8746;49.230;9.220;2022-07-23T03:19:34;9.32;;;8.48;;
17259;SDS011;8746;49.230;9.220;2022-07-23T03:21:59;8.98;;;8.10;;
17259;SDS011;8746;49.230;9.220;2022-07-23T03:24:25;9.38;;;8.40;;
17259;SDS011;8746;49.230;9.220;2022-07-23T03:27:10;9.50;;;8.70;;
17259;SDS011;8746;49.230;9.220;2022-07-23T03:29:36;9.63;;;8.70;;
17259;SDS011;8746;49.230;9.220;2022-07-23T03:32:02;9.80;;;8.85;;
17259;SDS011;8746;49.230;9.220;2022-07-23T03:34:28;10.38;;;8.88;;
17259;SDS011;8746;49.230;9.220;2022-07-23T03:36:53;9.52;;;8.65;;
17259;SDS011;8746;49.230;9.220;2022-07-23T03:39:19;9.70;;;8.90;;
17259;SDS011;8746;49.230;9.220;2022-07-23T03:41:44;9.10;;;8.35;;
17259;SDS011;8746;49.230;9.220;2022-07-23T03:44:10;17.77;;;8.40;;
17259;SDS011;8746;49.230;9.220;2022-07-23T03:46:35;10.68;;;9.02;;
17259;SDS011;8746;49.230;9.220;2022-07-23T03:49:00;10.07;;;8.95;;
17259;SDS011;8746;49.230;9.220;2022-07-23T03:51:26;9.77;;;8.70;;
17259;SDS011;8746;49.230;9.220;2022-07-23T03:53:51;10.40;;;9.50;;
17259;SDS011;8746;49.230;9.220;2022-07-23T03:56:16;10.63;;;9.00;;
17259;SDS011;8746;49.230;9.220;2022-07-23T03:58:42;9.60;;;8.70;;
17259;SDS011;8746;49.230;9.220;2022-07-23T04:01:07;10.00;;;9.00;;
17259;SDS011;8746;49.230;9.220;2022-07-23T04:03:33;9.65;;;8.73;;
17259;SDS011;8746;49.230;9.220;2022-07-23T04:05:58;9.70;;;8.80;;
17259;SDS011;8746;49.230;9.220;2022-07-23T04:08:23;10.57;;;9.55;;
17259;SDS011;8746;49.230;9.220;2022-07-23T04:10:50;9.30;;;8.35;;
17259;SDS011;8746;49.230;9.220;2022-07-23T04:13:15;9.50;;;8.60;;
17259;SDS011;8746;49.230;9.220;2022-07-23T04:15:41;9.48;;;8.45;;
17259;SDS011;8746;49.230;9.220;2022-07-23T04:18:06;10.18;;;9.13;;
17259;SDS011;8746;49.230;9.220;2022-07-23T04:20:32;8.70;;;8.00;;
17259;SDS011;8746;49.230;9.220;2022-07-23T04:22:58;11.50;;;8.43;;
17259;SDS011;8746;49.230;9.220;2022-07-23T04:25:23;10.30;;;8.60;;
17259;SDS011;8746;49.230;9.220;2022-07-23T04:27:49;8.85;;;8.05;;
17259;SDS011;8746;49.230;9.220;2022-07-23T04:30:14;9.25;;;8.45;;
17259;SDS011;8746;49.230;9.220;2022-07-23T04:32:39;8.73;;;7.82;;
17259;SDS011;8746;49.230;9.220;2022-07-23T04:35:05;9.15;;;8.27;;
17259;SDS011;8746;49.230;9.220;2022-07-23T04:37:30;9.15;;;8.35;;
17259;SDS011;8746;49.230;9.220;2022-07-23T04:39:56;8.43;;;7.68;;
17259;SDS011;8746;49.230;9.220;2022-07-23T04:42:21;10.55;;;7.88;;
17259;SDS011;8746;49.230;9.220;2022-07-23T04:44:46;8.93;;;7.95;;
17259;SDS011;8746;49.230;9.220;2022-07-23T04:47:12;8.70;;;7.97;;
17259;SDS011;8746;49.230;9.220;2022-07-23T04:49:37;8.57;;;7.22;;
17259;SDS011;8746;49.230;9.220;2022-07-23T04:52:03;8.48;;;7.40;;
17259;SDS011;8746;49.230;9.220;2022-07-23T04:54:28;8.85;;;8.00;;
17259;SDS011;8746;49.230;9.220;2022-07-23T04:56:53;8.15;;;7.43;;
17259;SDS011;8746;49.230;9.220;2022-07-23T04:59:19;8.10;;;7.43;;
17259;SDS011;8746;49.230;9.220;2022-07-23T05:01:44;8.93;;;7.38;;
17259;SDS011;8746;49.230;9.220;2022-07-23T05:04:10;7.88;;;7.18;;
17259;SDS011;8746;49.230;9.220;2022-07-23T05:06:35;8.48;;;7.10;;
17259;SDS011;8746;49.230;9.220;2022-07-23T05:09:00;12.65;;;6.95;;
17259;SDS011;8746;49.230;9.220;2022-07-23T05:11:26;7.47;;;6.78;;
17259;SDS011;8746;49.230;9.220;2022-07-23T05:13:51;7.68;;;6.97;;
17259;SDS011;8746;49.230;9.220;2022-07-23T05:16:16;7.68;;;6.97;;
17259;SDS011;8746;49.230;9.220;2022-07-23T05:18:42;7.43;;;6.82;;
17259;SDS011;8746;49.230;9.220;2022-07-23T05:21:07;7.50;;;6.80;;
17259;SDS011;8746;49.230;9.220;2022-07-23T05:23:32;8.10;;;6.90;;
17259;SDS011;8746;49.230;9.220;2022-07-23T05:25:58;8.52;;;7.68;;
17259;SDS011;8746;49.230;9.220;2022-07-23T05:28:23;8.18;;;7.47;;
17259;SDS011;8746;49.230;9.220;2022-07-23T05:30:48;7.97;;;7.13;;
17259;SDS011;8746;49.230;9.220;2022-07-23T05:33:14;7.97;;;7.38;;
17259;SDS011;8746;49.230;9.220;2022-07-23T05:35:39;8.07;;;7.30;;
17259;SDS011;8746;49.230;9.220;2022-07-23T05:38:05;8.43;;;7.22;;
17259;SDS011;8746;49.230;9.220;2022-07-23T05:40:30;10.07;;;7.50;;
17259;SDS011;8746;49.230;9.220;2022-07-23T05:42:55;10.40;;;8.27;;
17259;SDS011;8746;49.230;9.220;2022-07-23T05:45:21;12.30;;;8.38;;
17259;SDS011;8746;49.230;9.220;2022-07-23T05:47:47;12.60;;;9.30;;
17259;SDS011;8746;49.230;9.220;2022-07-23T05:50:13;12.47;;;9.20;;
17259;SDS011;8746;49.230;9.220;2022-07-23T05:52:39;17.13;;;10.53;;
17259;SDS011;8746;49.230;9.220;2022-07-23T05:55:05;11.70;;;10.03;;
17259;SDS011;8746;49.230;9.220;2022-07-23T05:57:32;12.40;;;11.20;;
17259;SDS011;8746;49.230;9.220;2022-07-23T05:59:57;11.83;;;10.63;;
17259;SDS011;8746;49.230;9.220;2022-07-23T06:02:23;11.37;;;10.30;;
17259;SDS011;8746;49.230;9.220;2022-07-23T06:04:48;13.53;;;10.40;;
17259;SDS011;8746;49.230;9.220;2022-07-23T06:07:13;10.53;;;9.40;;
17259;SDS011;8746;49.230;9.220;2022-07-23T06:09:39;11.27;;;10.20;;
17259;SDS011;8746;49.230;9.220;2022-07-23T06:12:04;11.53;;;10.30;;
17259;SDS011;8746;49.230;9.220;2022-07-23T06:14:30;11.63;;;10.17;;
17259;SDS011;8746;49.230;9.220;2022-07-23T06:16:55;11.53;;;10.33;;
17259;SDS011;8746;49.230;9.220;2022-07-23T06:19:21;11.13;;;10.13;;
17259;SDS011;8746;49.230;9.220;2022-07-23T06:21:46;11.60;;;10.43;;
17259;SDS011;8746;49.230;9.220;2022-07-23T06:24:11;11.47;;;10.37;;
17259;SDS011;8746;49.230;9.220;2022-07-23T06:26:37;12.10;;;9.93;;
17259;SDS011;8746;49.230;9.220;2022-07-23T06:29:02;11.53;;;10.53;;
17259;SDS011;8746;49.230;9.220;2022-07-23T06:31:27;11.00;;;10.00;;
17259;SDS011;8746;49.230;9.220;2022-07-23T06:33:53;12.57;;;10.57;;
17259;SDS011;8746;49.230;9.220;2022-07-23T06:36:19;12.17;;;10.97;;
17259;SDS011;8746;49.230;9.220;2022-07-23T06:38:44;11.83;;;10.83;;
17259;SDS011;8746;49.230;9.220;2022-07-23T06:41:10;11.10;;;10.00;;
17259;SDS011;8746;49.230;9.220;2022-07-23T06:43:35;10.30;;;9.30;;
17259;SDS011;8746;49.230;9.220;2022-07-23T06:46:01;11.80;;;9.60;;
17259;SDS011;8746;49.230;9.220;2022-07-23T06:48:26;11.63;;;10.38;;
17259;SDS011;8746;49.230;9.220;2022-07-23T06:50:53;13.60;;;10.27;;
17259;SDS011;8746;49.230;9.220;2022-07-23T06:53:18;11.47;;;10.30;;
17259;SDS011;8746;49.230;9.220;2022-07-23T06:55:44;13.30;;;10.60;;
17259;SDS011;8746;49.230;9.220;2022-07-23T06:58:09;11.67;;;10.47;;
17259;SDS011;8746;49.230;9.220;2022-07-23T07:00:35;11.43;;;10.43;;
17259;SDS011;8746;49.230;9.220;2022-07-23T07:03:01;11.47;;;10.30;;
17259;SDS011;8746;49.230;9.220;2022-07-23T07:05:26;11.02;;;10.05;;
17259;SDS011;8746;49.230;9.220;2022-07-23T07:07:53;11.57;;;10.43;;
17259;SDS011;8746;49.230;9.220;2022-07-23T07:10:20;11.60;;;10.60;;
17259;SDS011;8746;49.230;9.220;2022-07-23T07:12:46;14.35;;;10.43;;
17259;SDS011;8746;49.230;9.220;2022-07-23T07:15:11;11.63;;;10.07;;
17259;SDS011;8746;49.230;9.220;2022-07-23T07:17:37;13.00;;;10.10;;
17259;SDS011;8746;49.230;9.220;2022-07-23T07:20:03;13.18;;;10.35;;
17259;SDS011;8746;49.230;9.220;2022-07-23T07:22:29;11.13;;;10.13;;
17259;SDS011;8746;49.230;9.220;2022-07-23T07:24:54;11.00;;;10.00;;
17259;SDS011;8746;49.230;9.220;2022-07-23T07:27:20;11.52;;;10.30;;
17259;SDS011;8746;49.230;9.220;2022-07-23T07:29:45;10.93;;;9.88;;
17259;SDS011;8746;49.230;9.220;2022-07-23T07:32:11;11.77;;;10.00;;
17259;SDS011;8746;49.230;9.220;2022-07-23T07:34:36;10.70;;;9.73;;
17259;SDS011;8746;49.230;9.220;2022-07-23T07:37:02;11.20;;;10.18;;
17259;SDS011;8746;49.230;9.220;2022-07-23T07:39:27;12.27;;;10.50;;
17259;SDS011;8746;49.230;9.220;2022-07-23T07:41:52;11.73;;;10.63;;
17259;SDS011;8746;49.230;9.220;2022-07-23T07:44:18;11.73;;;10.73;;
17259;SDS011;8746;49.230;9.220;2022-07-23T07:46:43;11.63;;;10.45;;
17259;SDS011;8746;49.230;9.220;2022-07-23T07:49:09;10.88;;;9.88;;
17259;SDS011;8746;49.230;9.220;2022-07-23T07:51:34;11.63;;;10.43;;
17259;SDS011;8746;49.230;9.220;2022-07-23T07:54:00;11.55;;;10.23;;
17259;SDS011;8746;49.230;9.220;2022-07-23T07:56:26;11.52;;;10.35;;
17259;SDS011;8746;49.230;9.220;2022-07-23T07:58:51;10.82;;;9.77;;
17259;SDS011;8746;49.230;9.220;2022-07-23T08:01:16;10.88;;;9.90;;
17259;SDS011;8746;49.230;9.220;2022-07-23T08:03:42;10.50;;;9.60;;
17259;SDS011;8746;49.230;9.220;2022-07-23T08:06:07;10.02;;;9.10;;
17259;SDS011;8746;49.230;9.220;2022-07-23T08:08:33;9.95;;;9.07;;
17259;SDS011;8746;49.230;9.220;2022-07-23T08:10:58;10.98;;;9.85;;
17259;SDS011;8746;49.230;9.220;2022-07-23T08:13:23;11.65;;;10.48;;
17259;SDS011;8746;49.230;9.220;2022-07-23T08:15:49;11.38;;;9.57;;
17259;SDS011;8746;49.230;9.220;2022-07-23T08:18:14;10.93;;;10.00;;
17259;SDS011;8746;49.230;9.220;2022-07-23T08:20:40;9.90;;;9.10;;
17259;SDS011;8746;49.230;9.220;2022-07-23T08:23:06;9.02;;;8.23;;
17259;SDS011;8746;49.230;9.220;2022-07-23T08:25:42;9.60;;;8.60;;
17259;SDS011;8746;49.230;9.220;2022-07-23T08:28:08;8.93;;;8.07;;
17259;SDS011;8746;49.230;9.220;2022-07-23T08:30:36;9.38;;;7.88;;
17259;SDS011;8746;49.230;9.220;2022-07-23T08:33:03;8.93;;;7.97;;
17259;SDS011;8746;49.230;9.220;2022-07-23T08:35:36;9.25;;;8.30;;
17259;SDS011;8746;49.230;9.220;2022-07-23T08:38:04;9.52;;;7.85;;
17259;SDS011;8746;49.230;9.220;2022-07-23T08:40:31;10.13;;;8.00;;
17259;SDS011;8746;49.230;9.220;2022-07-23T08:42:59;8.65;;;7.95;;
17259;SDS011;8746;49.230;9.220;2022-07-23T08:45:26;9.40;;;8.50;;
17259;SDS011;8746;49.230;9.220;2022-07-23T08:47:53;8.45;;;7.55;;
17259;SDS011;8746;49.230;9.220;2022-07-23T08:50:21;11.20;;;8.25;;
17259;SDS011;8746;49.230;9.220;2022-07-23T08:52:48;10.35;;;8.32;;
17259;SDS011;8746;49.230;9.220;2022-07-23T08:55:18;8.68;;;7.88;;
17259;SDS011;8746;49.230;9.220;2022-07-23T08:57:46;9.02;;;8.10;;
17259;SDS011;8746;49.230;9.220;2022-07-23T09:00:13;9.90;;;8.60;;
17259;SDS011;8746;49.230;9.220;2022-07-23T09:02:42;11.35;;;8.38;;
17259;SDS011;8746;49.230;9.220;2022-07-23T09:05:09;9.57;;;8.73;;
17259;SDS011;8746;49.230;9.220;2022-07-23T09:07:36;10.75;;;9.30;;
17259;SDS011;8746;49.230;9.220;2022-07-23T09:10:07;9.68;;;8.77;;
17259;SDS011;8746;49.230;9.220;2022-07-23T09:12:34;9.60;;;8.80;;
17259;SDS011;8746;49.230;9.220;2022-07-23T09:15:07;9.70;;;8.63;;
17259;SDS011;8746;49.230;9.220;2022-07-23T09:17:40;9.57;;;8.77;;
17259;SDS011;8746;49.230;9.220;2022-07-23T09:20:11;10.25;;;9.25;;
17259;SDS011;8746;49.230;9.220;2022-07-23T09:22:38;9.63;;;8.82;;
17259;SDS011;8746;49.230;9.220;2022-07-23T09:25:17;15.05;;;9.13;;
17259;SDS011;8746;49.230;9.220;2022-07-23T09:27:48;11.18;;;9.07;;
17259;SDS011;8746;49.230;9.220;2022-07-23T09:30:23;10.25;;;9.35;;
17259;SDS011;8746;49.230;9.220;2022-07-23T09:35:43;10.20;;;9.30;;
17259;SDS011;8746;49.230;9.220;2022-07-23T09:38:19;10.30;;;9.25;;
17259;SDS011;8746;49.230;9.220;2022-07-23T09:40:47;10.20;;;9.40;;
17259;SDS011;8746;49.230;9.220;2022-07-23T09:43:33;10.43;;;8.98;;
17259;SDS011;8746;49.230;9.220;2022-07-23T09:46:20;9.88;;;8.90;;
17259;SDS011;8746;49.230;9.220;2022-07-23T09:48:48;10.82;;;9.00;;
17259;SDS011;8746;49.230;9.220;2022-07-23T09:51:14;9.70;;;8.90;;
17259;SDS011;8746;49.230;9.220;2022-07-23T09:53:46;11.15;;;9.95;;
17259;SDS011;8746;49.230;9.220;2022-07-23T09:56:12;10.32;;;9.43;;
17259;SDS011;8746;49.230;9.220;2022-07-23T09:58:40;10.70;;;9.70;;
17259;SDS011;8746;49.230;9.220;2022-07-23T10:01:12;11.00;;;10.00;;
17259;SDS011;8746;49.230;9.220;2022-07-23T10:03:38;12.68;;;9.65;;
17259;SDS011;8746;49.230;9.220;2022-07-23T10:06:05;11.88;;;10.73;;
17259;SDS011;8746;49.230;9.220;2022-07-23T10:08:32;9.95;;;9.05;;
17259;SDS011;8746;49.230;9.220;2022-07-23T10:10:59;11.55;;;9.85;;
17259;SDS011;8746;49.230;9.220;2022-07-23T10:13:25;10.77;;;9.43;;
17259;SDS011;8746;49.230;9.220;2022-07-23T10:16:09;10.23;;;9.32;;
17259;SDS011;8746;49.230;9.220;2022-07-23T10:18:35;10.05;;;9.15;;
17259;SDS011;8746;49.230;9.220;2022-07-23T10:21:01;10.85;;;9.40;;
17259;SDS011;8746;49.230;9.220;2022-07-23T10:23:51;9.55;;;8.65;;
17259;SDS011;8746;49.230;9.220;2022-07-23T10:29:13;8.80;;;8.18;;
17259;SDS011;8746;49.230;9.220;2022-07-23T10:37:36;11.88;;;9.40;;
17259;SDS011;8746;49.230;9.220;2022-07-23T10:40:08;8.82;;;8.13;;
17259;SDS011;8746;49.230;9.220;2022-07-23T10:42:46;8.85;;;8.07;;
17259;SDS011;8746;49.230;9.220;2022-07-23T10:47:52;8.70;;;7.88;;
17259;SDS011;8746;49.230;9.220;2022-07-23T10:50:25;8.60;;;7.72;;
17259;SDS011;8746;49.230;9.220;2022-07-23T10:53:15;8.45;;;7.57;;
17259;SDS011;8746;49.230;9.220;2022-07-23T10:55:48;8.00;;;7.35;;
17259;SDS011;8746;49.230;9.220;2022-07-23T10:58:18;8.02;;;7.35;;
17259;SDS011;8746;49.230;9.220;2022-07-23T11:01:02;8.00;;;7.20;;
17259;SDS011;8746;49.230;9.220;2022-07-23T11:04:01;8.15;;;7.20;;
17259;SDS011;8746;49.230;9.220;2022-07-23T11:09:27;7.88;;;7.18;;
17259;SDS011;8746;49.230;9.220;2022-07-23T11:18:16;7.22;;;6.63;;
17259;SDS011;8746;49.230;9.220;2022-07-23T11:20:18;6.40;;;5.90;;
17259;SDS011;8746;49.230;9.220;2022-07-23T11:25:11;6.13;;;5.60;;
17259;SDS011;8746;49.230;9.220;2022-07-23T11:27:46;6.65;;;6.10;;
17259;SDS011;8746;49.230;9.220;2022-07-23T11:32:54;5.50;;;5.20;;
17259;SDS011;8746;49.230;9.220;2022-07-23T11:35:39;5.82;;;5.20;;
17259;SDS011;8746;49.230;9.220;2022-07-23T11:38:07;6.20;;;4.95;;
17259;SDS011;8746;49.230;9.220;2022-07-23T11:40:39;5.72;;;5.22;;
17259;SDS011;8746;49.230;9.220;2022-07-23T11:43:05;5.97;;;5.53;;
17259;SDS011;8746;49.230;9.220;2022-07-23T11:45:43;5.93;;;5.53;;
17259;SDS011;8746;49.230;9.220;2022-07-23T11:50:42;6.28;;;5.78;;
17259;SDS011;8746;49.230;9.220;2022-07-23T11:53:07;6.20;;;5.70;;
17259;SDS011;8746;49.230;9.220;2022-07-23T11:55:33;5.68;;;5.18;;
17259;SDS011;8746;49.230;9.220;2022-07-23T11:57:59;5.80;;;5.40;;
17259;SDS011;8746;49.230;9.220;2022-07-23T12:00:25;6.05;;;5.60;;
17259;SDS011;8746;49.230;9.220;2022-07-23T12:02:53;6.45;;;5.95;;
17259;SDS011;8746;49.230;9.220;2022-07-23T12:05:24;6.00;;;5.60;;
17259;SDS011;8746;49.230;9.220;2022-07-23T12:07:52;6.75;;;6.15;;
17259;SDS011;8746;49.230;9.220;2022-07-23T12:10:21;6.03;;;5.60;;
17259;SDS011;8746;49.230;9.220;2022-07-23T12:12:58;6.05;;;5.55;;
17259;SDS011;8746;49.230;9.220;2022-07-23T12:15:32;5.38;;;4.97;;
17259;SDS011;8746;49.230;9.220;2022-07-23T12:18:04;6.10;;;5.60;;
17259;SDS011;8746;49.230;9.220;2022-07-23T12:20:34;6.30;;;5.70;;
17259;SDS011;8746;49.230;9.220;2022-07-23T12:23:02;5.93;;;5.40;;
17259;SDS011;8746;49.230;9.220;2022-07-23T12:25:30;6.28;;;5.65;;
17259;SDS011;8746;49.230;9.220;2022-07-23T12:28:07;5.93;;;5.50;;
17259;SDS011;8746;49.230;9.220;2022-07-23T12:30:44;6.30;;;5.70;;
17259;SDS011;8746;49.230;9.220;2022-07-23T12:33:15;5.95;;;5.38;;
17259;SDS011;8746;49.230;9.220;2022-07-23T12:35:52;6.20;;;5.63;;
17259;SDS011;8746;49.230;9.220;2022-07-23T12:38:21;6.53;;;6.03;;
17259;SDS011;8746;49.230;9.220;2022-07-23T12:40:49;6.78;;;6.20;;
17259;SDS011;8746;49.230;9.220;2022-07-23T12:46:17;6.30;;;5.78;;
17259;SDS011;8746;49.230;9.220;2022-07-23T12:51:17;6.93;;;6.07;;
17259;SDS011;8746;49.230;9.220;2022-07-23T12:54:16;6.75;;;6.05;;
17259;SDS011;8746;49.230;9.220;2022-07-23T12:56:36;7.10;;;6.50;;
17259;SDS011;8746;49.230;9.220;2022-07-23T13:01:29;6.00;;;5.57;;
17259;SDS011;8746;49.230;9.220;2022-07-23T13:04:06;6.68;;;6.00;;
17259;SDS011;8746;49.230;9.220;2022-07-23T13:06:33;6.47;;;5.97;;
17259;SDS011;8746;49.230;9.220;2022-07-23T13:09:10;6.90;;;6.30;;
17259;SDS011;8746;49.230;9.220;2022-07-23T13:11:46;6.13;;;5.65;;
17259;SDS011;8746;49.230;9.220;2022-07-23T13:14:12;7.00;;;6.30;;
17259;SDS011;8746;49.230;9.220;2022-07-23T13:16:39;6.78;;;6.15;;
17259;SDS011;8746;49.230;9.220;2022-07-23T13:19:06;8.40;;;6.60;;
17259;SDS011;8746;49.230;9.220;2022-07-23T13:21:31;7.40;;;6.13;;
17259;SDS011;8746;49.230;9.220;2022-07-23T13:23:57;6.45;;;5.95;;
17259;SDS011;8746;49.230;9.220;2022-07-23T13:26:23;6.45;;;6.05;;
17259;SDS011;8746;49.230;9.220;2022-07-23T13:28:49;6.40;;;5.88;;
17259;SDS011;8746;49.230;9.220;2022-07-23T13:31:15;7.03;;;6.53;;
17259;SDS011;8746;49.230;9.220;2022-07-23T13:33:41;6.57;;;5.97;;
17259;SDS011;8746;49.230;9.220;2022-07-23T13:36:07;7.32;;;6.18;;
17259;SDS011;8746;49.230;9.220;2022-07-23T13:38:32;6.10;;;5.60;;
17259;SDS011;8746;49.230;9.220;2022-07-23T13:40:58;6.50;;;6.00;;
17259;SDS011;8746;49.230;9.220;2022-07-23T13:43:24;6.95;;;6.38;;
17259;SDS011;8746;49.230;9.220;2022-07-23T13:45:50;6.20;;;5.70;;
17259;SDS011;8746;49.230;9.220;2022-07-23T13:48:17;6.97;;;6.35;;
17259;SDS011;8746;49.230;9.220;2022-07-23T13:50:43;7.07;;;6.40;;
17259;SDS011;8746;49.230;9.220;2022-07-23T13:53:10;7.03;;;6.45;;
17259;SDS011;8746;49.230;9.220;2022-07-23T13:55:37;6.65;;;6.10;;
17259;SDS011;8746;49.230;9.220;2022-07-23T13:58:04;7.10;;;6.00;;
17259;SDS011;8746;49.230;9.220;2022-07-23T14:00:31;6.97;;;6.30;;
17259;SDS011;8746;49.230;9.220;2022-07-23T14:02:58;7.00;;;6.30;;
17259;SDS011;8746;49.230;9.220;2022-07-23T14:05:25;7.10;;;6.50;;
17259;SDS011;8746;49.230;9.220;2022-07-23T14:07:51;7.78;;;6.70;;
17259;SDS011;8746;49.230;9.220;2022-07-23T14:10:17;6.95;;;6.38;;
17259;SDS011;8746;49.230;9.220;2022-07-23T14:12:45;6.80;;;6.30;;
17259;SDS011;8746;49.230;9.220;2022-07-23T14:15:12;6.72;;;6.10;;
17259;SDS011;8746;49.230;9.220;2022-07-23T14:17:38;6.82;;;6.22;;
17259;SDS011;8746;49.230;9.220;2022-07-23T14:20:05;6.32;;;5.82;;
17259;SDS011;8746;49.230;9.220;2022-07-23T14:22:32;6.55;;;5.95;;
17259;SDS011;8746;49.230;9.220;2022-07-23T14:24:57;6.63;;;6.20;;
17259;SDS011;8746;49.230;9.220;2022-07-23T14:27:23;7.03;;;6.43;;
17259;SDS011;8746;49.230;9.220;2022-07-23T14:29:49;7.13;;;6.45;;
17259;SDS011;8746;49.230;9.220;2022-07-23T14:32:15;6.68;;;6.13;;
17259;SDS011;8746;49.230;9.220;2022-07-23T14:34:40;6.88;;;6.28;;
17259;SDS011;8746;49.230;9.220;2022-07-23T14:37:06;6.85;;;6.18;;
17259;SDS011;8746;49.230;9.220;2022-07-23T14:39:31;7.22;;;6.63;;
17259;SDS011;8746;49.230;9.220;2022-07-23T14:41:57;6.68;;;6.18;;
17259;SDS011;8746;49.230;9.220;2022-07-23T14:44:22;7.35;;;6.75;;
17259;SDS011;8746;49.230;9.220;2022-07-23T14:46:47;7.30;;;6.50;;
17259;SDS011;8746;49.230;9.220;2022-07-23T14:49:13;7.15;;;6.65;;
17259;SDS011;8746;49.230;9.220;2022-07-23T14:51:38;7.15;;;6.45;;
17259;SDS011;8746;49.230;9.220;2022-07-23T14:54:05;7.03;;;6.45;;
17259;SDS011;8746;49.230;9.220;2022-07-23T14:56:31;6.40;;;5.88;;
17259;SDS011;8746;49.230;9.220;2022-07-23T14:58:58;6.95;;;6.25;;
17259;SDS011;8746;49.230;9.220;2022-07-23T15:01:24;7.18;;;6.57;;
17259;SDS011;8746;49.230;9.220;2022-07-23T15:03:49;7.45;;;6.47;;
17259;SDS011;8746;49.230;9.220;2022-07-23T15:06:16;7.55;;;6.95;;
17259;SDS011;8746;49.230;9.220;2022-07-23T15:08:42;7.13;;;6.63;;
17259;SDS011;8746;49.230;9.220;2022-07-23T15:11:08;7.70;;;6.32;;
17259;SDS011;8746;49.230;9.220;2022-07-23T15:13:37;7.40;;;6.53;;
17259;SDS011;8746;49.230;9.220;2022-07-23T15:16:03;7.63;;;7.00;;
17259;SDS011;8746;49.230;9.220;2022-07-23T15:18:30;8.90;;;6.55;;
17259;SDS011;8746;49.230;9.220;2022-07-23T15:20:56;7.43;;;6.70;;
17259;SDS011;8746;49.230;9.220;2022-07-23T15:23:22;7.70;;;7.00;;
17259;SDS011;8746;49.230;9.220;2022-07-23T15:25:47;7.82;;;7.07;;
17259;SDS011;8746;49.230;9.220;2022-07-23T15:28:13;7.78;;;7.20;;
17259;SDS011;8746;49.230;9.220;2022-07-23T15:30:38;7.50;;;6.90;;
17259;SDS011;8746;49.230;9.220;2022-07-23T15:33:04;7.78;;;7.18;;
17259;SDS011;8746;49.230;9.220;2022-07-23T15:35:30;7.47;;;6.85;;